Ana Sayfa
METAR-TAF:

METAR-TAF

Havaalanları :

Harrisburg, Pensilvanya, Amerika Birleşik Devletleri

Enlem: 40-13-02N, Boylam: 076-51-05W, yükseklik: 106 m

Güncel hava durumu gözlemi

Rapor saat 18:56 UTC de 47 dakika önce yapıldı.
Sakin rüzgar
Sıcaklık 28°C
Nem 62%
Basınç 1012 hPa
Görüş mesafesi: 16.1 km
2800 ft yükseklikte parçalı bulutlu
11000 ft yükseklikte parçalı bulutlu

METAR: KCXY 051856Z 00000KT 10SM SCT028 SCT110 28/20 A2987 RMK AO2 LTG DSNT SE AND S SLP112 T02830200

Saat: 15:43 (19:43 UTC)


TAF: eksik

4.000'den fazla havaalanı için hava durumu gözlemleri ve tahminleri (METAR ve TAF raporları).

Kullanılabilir istasyonlar harita üzerinde sarı ve kırmızı noktalarla gösterilir.

İstasyonun adını görmek için fareyi noktanın üzerinde gezdirin.

Sonrasında hava gözlem ve tahminlerini görmek için tıklayın.

Haritayı değiştirmek için: yaklaştırmak için siyah artı işaretli yeşil düğmeye ve uzaklaştırmak için de eksi işaretli düğmeye hızla tıklayın; bitişik haritalar için yeşil okları kullanın.


METAR-TAF: